createdAt,value
2023-05-20T00:00:41.825Z,50.55
2023-05-20T00:01:41.792Z,50.25
2023-05-20T00:02:41.837Z,49.38
2023-05-20T00:03:41.899Z,49.23
2023-05-20T00:04:41.856Z,49.26
2023-05-20T00:05:41.842Z,49.41
2023-05-20T00:06:41.708Z,49.15
2023-05-20T00:07:41.705Z,47.63
2023-05-20T00:08:41.703Z,46.98
2023-05-20T00:09:41.676Z,45.87
2023-05-20T00:10:41.693Z,45.97
2023-05-20T00:11:41.665Z,46.33
2023-05-20T00:12:41.634Z,45.82
2023-05-20T00:13:41.652Z,45.82
2023-05-20T00:14:41.602Z,45.27
2023-05-20T00:15:41.590Z,46.02
2023-05-20T00:16:41.632Z,45.37
2023-05-20T00:17:41.612Z,44.21
2023-05-20T00:18:41.617Z,43.34
2023-05-20T00:19:41.571Z,43.79
2023-05-20T00:20:41.532Z,43.61
2023-05-20T00:21:41.528Z,43.70
2023-05-20T00:22:41.491Z,43.47
2023-05-20T00:23:41.513Z,43.20
2023-05-20T00:24:41.480Z,42.63
2023-05-20T00:25:41.481Z,41.94
2023-05-20T00:26:41.465Z,41.98
2023-05-20T00:27:41.438Z,42.07
2023-05-20T00:28:41.431Z,41.81
2023-05-20T00:29:41.426Z,40.79
2023-05-20T00:30:41.386Z,40.75
2023-05-20T00:31:41.396Z,40.99
2023-05-20T00:32:41.408Z,41.31
2023-05-20T00:33:41.349Z,40.55
2023-05-20T00:34:41.340Z,40.08
2023-05-20T00:35:41.331Z,40.35
2023-05-20T00:36:41.316Z,39.77
2023-05-20T00:37:41.279Z,40.51
2023-05-20T00:38:41.270Z,40.55
2023-05-20T00:39:41.302Z,40.47
2023-05-20T00:40:41.240Z,40.47
2023-05-20T00:41:41.227Z,40.79
2023-05-20T00:42:41.207Z,40.47
2023-05-20T00:43:41.204Z,40.28
2023-05-20T00:44:41.209Z,39.81
2023-05-20T00:45:41.203Z,39.62
2023-05-20T00:46:41.177Z,39.32
2023-05-20T00:47:41.163Z,39.51
2023-05-20T00:48:41.155Z,40.31
2023-05-20T00:49:41.136Z,41.23
2023-05-20T00:50:41.098Z,41.94
2023-05-20T00:51:41.084Z,42.32
2023-05-20T00:52:41.092Z,43.02
2023-05-20T00:53:41.075Z,42.45
2023-05-20T00:54:41.059Z,41.65
2023-05-20T00:55:41.055Z,41.44
2023-05-20T00:56:41.014Z,42.24
2023-05-20T00:57:41.022Z,42.32
2023-05-20T00:58:41.003Z,42.85
2023-05-20T00:59:42.319Z,42.85
2023-05-20T01:00:40.979Z,42.76
2023-05-20T01:01:40.961Z,42.32
2023-05-20T01:02:40.975Z,42.07
2023-05-20T01:03:40.965Z,42.85
2023-05-20T01:04:40.895Z,42.50
2023-05-20T01:05:42.423Z,42.37
2023-05-20T01:06:40.872Z,42.15
2023-05-20T01:07:40.858Z,42.54
2023-05-20T01:08:40.861Z,42.80
2023-05-20T01:09:40.831Z,43.47
2023-05-20T01:10:40.834Z,44.26
2023-05-20T01:11:40.803Z,44.78
2023-05-20T01:12:40.824Z,42.76
2023-05-20T01:13:40.778Z,42.67
2023-05-20T01:14:40.770Z,43.65
2023-05-20T01:15:40.774Z,44.17
2023-05-20T01:16:40.787Z,44.64
2023-05-20T01:17:40.854Z,43.84
2023-05-20T01:18:40.738Z,44.12
2023-05-20T01:19:40.719Z,43.16
2023-05-20T01:20:40.679Z,42.45
2023-05-20T01:21:40.654Z,41.81
2023-05-20T01:22:40.641Z,41.56
2023-05-20T01:23:40.648Z,40.67
2023-05-20T01:24:40.623Z,40.99
2023-05-20T01:25:40.609Z,40.51
2023-05-20T01:26:40.627Z,39.85
2023-05-20T01:27:40.585Z,39.25
2023-05-20T01:28:40.555Z,38.20
2023-05-20T01:29:40.577Z,37.96
2023-05-20T01:30:40.540Z,38.63
2023-05-20T01:31:40.598Z,39.32
2023-05-20T01:32:40.576Z,39.81
2023-05-20T01:33:40.499Z,40.75
2023-05-20T01:34:40.481Z,40.95
2023-05-20T01:35:40.484Z,41.48
2023-05-20T01:36:40.453Z,42.19
2023-05-20T01:37:40.445Z,42.67
2023-05-20T01:38:40.419Z,43.02
2023-05-20T01:39:40.418Z,43.38
2023-05-20T01:40:40.401Z,43.47
2023-05-20T01:41:40.390Z,43.07
2023-05-20T01:42:40.379Z,41.81
2023-05-20T01:43:40.350Z,41.11
2023-05-20T01:44:40.362Z,40.67
2023-05-20T01:45:40.366Z,40.35
2023-05-20T01:46:40.373Z,39.74
2023-05-20T01:47:40.323Z,38.96
2023-05-20T01:48:40.280Z,39.10
2023-05-20T01:49:40.261Z,39.25
2023-05-20T01:50:40.257Z,39.14
2023-05-20T01:51:40.241Z,38.38
2023-05-20T01:52:40.223Z,38.03
2023-05-20T01:53:40.219Z,37.99
2023-05-20T01:54:40.191Z,37.45
2023-05-20T01:55:40.202Z,37.11
2023-05-20T01:56:40.169Z,36.95
2023-05-20T01:57:40.155Z,36.56
2023-05-20T01:58:40.136Z,36.78
2023-05-20T01:59:40.145Z,36.65
2023-05-20T02:00:40.170Z,36.72
2023-05-20T02:01:40.116Z,36.98
2023-05-20T02:02:40.161Z,37.05
2023-05-20T02:03:40.067Z,37.62
2023-05-20T02:04:40.062Z,37.51
2023-05-20T02:05:40.116Z,37.99
2023-05-20T02:06:40.033Z,38.24
2023-05-20T02:07:40.009Z,37.99
2023-05-20T02:08:39.989Z,37.75
2023-05-20T02:09:39.980Z,37.86
2023-05-20T02:10:40.006Z,37.55
2023-05-20T02:11:39.983Z,37.55
2023-05-20T02:12:39.941Z,37.92
2023-05-20T02:13:39.986Z,37.58
2023-05-20T02:14:39.911Z,36.53
2023-05-20T02:15:39.898Z,36.75
2023-05-20T02:16:39.909Z,36.24
2023-05-20T02:17:40.000Z,35.77
2023-05-20T02:18:39.882Z,35.35
2023-05-20T02:19:39.841Z,34.99
2023-05-20T02:20:39.836Z,34.90
2023-05-20T02:21:39.833Z,34.99
2023-05-20T02:22:39.798Z,34.70
2023-05-20T02:23:39.781Z,34.84
2023-05-20T02:24:39.787Z,34.19
2023-05-20T02:25:39.759Z,34.07
2023-05-20T02:26:39.762Z,33.91
2023-05-20T02:27:39.731Z,33.69
2023-05-20T02:28:39.721Z,34.02
2023-05-20T02:29:39.758Z,34.21
2023-05-20T02:30:39.693Z,34.30
2023-05-20T02:31:39.699Z,34.35
2023-05-20T02:32:39.704Z,34.30
2023-05-20T02:33:39.705Z,33.99
2023-05-20T02:34:39.636Z,33.52
2023-05-20T02:35:39.640Z,33.34
2023-05-20T02:36:39.646Z,33.26
2023-05-20T02:37:39.609Z,33.23
2023-05-20T02:38:39.591Z,33.39
2023-05-20T02:39:39.580Z,33.31
2023-05-20T02:40:39.565Z,32.97
2023-05-20T02:41:39.542Z,32.86
2023-05-20T02:42:39.524Z,33.28
2023-05-20T02:43:39.527Z,33.07
2023-05-20T02:44:39.496Z,33.50
2023-05-20T02:45:39.690Z,32.86
2023-05-20T02:46:39.563Z,33.52
2023-05-20T02:47:39.487Z,33.88
2023-05-20T02:48:39.436Z,33.88
2023-05-20T02:49:39.441Z,33.91
2023-05-20T02:50:39.414Z,34.02
2023-05-20T02:51:39.388Z,34.04
2023-05-20T02:52:39.382Z,34.02
2023-05-20T02:53:39.374Z,33.93
2023-05-20T02:54:39.341Z,34.04
2023-05-20T02:55:39.354Z,33.77
2023-05-20T02:56:39.338Z,34.19
2023-05-20T02:57:39.352Z,34.19
2023-05-20T02:58:39.300Z,33.91
2023-05-20T02:59:39.281Z,33.91
2023-05-20T03:00:39.280Z,33.91
2023-05-20T03:01:39.298Z,33.74
2023-05-20T03:02:39.303Z,32.84
2023-05-20T03:03:39.231Z,32.43
2023-05-20T03:04:39.280Z,33.04
2023-05-20T03:05:39.207Z,33.36
2023-05-20T03:06:39.192Z,33.20
2023-05-20T03:07:39.206Z,33.04
2023-05-20T03:08:39.154Z,32.73
2023-05-20T03:09:39.149Z,32.33
2023-05-20T03:10:39.134Z,32.60
2023-05-20T03:11:39.113Z,32.78
2023-05-20T03:12:39.116Z,32.89
2023-05-20T03:13:39.095Z,33.10
2023-05-20T03:14:39.074Z,33.10
2023-05-20T03:15:39.146Z,33.07
2023-05-20T03:16:39.055Z,32.48
2023-05-20T03:17:39.119Z,31.76
2023-05-20T03:18:39.037Z,30.95
2023-05-20T03:19:39.023Z,30.82
2023-05-20T03:20:38.997Z,30.73
2023-05-20T03:21:38.980Z,30.50
2023-05-20T03:22:38.977Z,30.80
2023-05-20T03:23:38.951Z,30.84
2023-05-20T03:24:38.950Z,31.45
2023-05-20T03:25:38.917Z,31.42
2023-05-20T03:26:38.922Z,31.35
2023-05-20T03:27:38.899Z,31.16
2023-05-20T03:28:38.933Z,31.49
2023-05-20T03:29:38.872Z,31.12
2023-05-20T03:30:38.852Z,31.30
2023-05-20T03:31:38.865Z,31.12
2023-05-20T03:32:38.882Z,31.16
2023-05-20T03:33:38.825Z,30.93
2023-05-20T03:34:38.794Z,30.48
2023-05-20T03:35:38.829Z,29.91
2023-05-20T03:36:38.774Z,29.05
2023-05-20T03:37:38.759Z,28.87
2023-05-20T03:38:38.772Z,28.71
2023-05-20T03:39:38.739Z,28.46
2023-05-20T03:40:38.727Z,28.48
2023-05-20T03:41:38.705Z,28.28
2023-05-20T03:42:38.702Z,28.07
2023-05-20T03:43:38.699Z,28.24
2023-05-20T03:44:38.668Z,28.24
2023-05-20T03:45:38.660Z,28.17
2023-05-20T03:46:38.677Z,28.15
2023-05-20T03:47:38.704Z,28.17
2023-05-20T03:48:38.616Z,28.13
2023-05-20T03:49:38.590Z,28.13
2023-05-20T03:50:38.576Z,28.23
2023-05-20T03:51:38.568Z,28.53
2023-05-20T03:52:38.551Z,28.50
2023-05-20T03:53:38.592Z,28.55
2023-05-20T03:54:38.560Z,28.61
2023-05-20T03:55:38.502Z,28.36
2023-05-20T03:56:38.492Z,28.07
2023-05-20T03:57:38.516Z,27.81
2023-05-20T03:58:38.488Z,27.75
2023-05-20T03:59:38.459Z,27.51
2023-05-20T04:00:38.450Z,27.70
2023-05-20T04:01:38.472Z,27.83
2023-05-20T04:02:38.546Z,28.36
2023-05-20T04:03:38.497Z,28.15
2023-05-20T04:04:38.379Z,28.02
2023-05-20T04:05:38.375Z,28.13
2023-05-20T04:06:38.353Z,28.09
2023-05-20T04:07:38.343Z,28.09
2023-05-20T04:08:38.325Z,27.87
2023-05-20T04:09:38.305Z,27.62
2023-05-20T04:10:38.304Z,27.70
2023-05-20T04:11:38.290Z,27.75
2023-05-20T04:12:38.281Z,27.75
2023-05-20T04:13:38.275Z,28.03
2023-05-20T04:14:38.258Z,27.79
2023-05-20T04:15:38.218Z,27.70
2023-05-20T04:16:38.217Z,27.74
2023-05-20T04:17:38.207Z,28.13
2023-05-20T04:18:38.191Z,28.32
2023-05-20T04:19:38.261Z,28.93
2023-05-20T04:20:38.157Z,29.13
2023-05-20T04:21:38.134Z,29.65
2023-05-20T04:22:38.124Z,29.46
2023-05-20T04:23:38.126Z,29.32
2023-05-20T04:24:38.116Z,28.75
2023-05-20T04:25:38.363Z,28.53
2023-05-20T04:26:38.074Z,28.28
2023-05-20T04:27:38.057Z,27.98
2023-05-20T04:28:38.046Z,27.39
2023-05-20T04:29:38.024Z,26.69
2023-05-20T04:30:38.023Z,26.57
2023-05-20T04:31:38.039Z,26.77
2023-05-20T04:32:38.035Z,26.69
2023-05-20T04:33:38.024Z,26.75
2023-05-20T04:34:37.980Z,26.47
2023-05-20T04:35:37.952Z,26.58
2023-05-20T04:36:37.935Z,26.42
2023-05-20T04:37:37.933Z,26.64
2023-05-20T04:38:37.917Z,26.60
2023-05-20T04:39:37.893Z,26.43
2023-05-20T04:40:37.893Z,26.57
2023-05-20T04:41:37.850Z,26.20
2023-05-20T04:42:37.999Z,26.23
2023-05-20T04:43:37.838Z,26.20
2023-05-20T04:44:37.839Z,26.50
2023-05-20T04:45:37.837Z,26.47
2023-05-20T04:46:37.828Z,26.26
2023-05-20T04:47:37.790Z,26.25
2023-05-20T04:48:37.776Z,26.58
2023-05-20T04:49:37.755Z,26.65
2023-05-20T04:50:37.729Z,26.58
2023-05-20T04:51:37.720Z,26.53
2023-05-20T04:52:37.709Z,26.42
2023-05-20T04:53:37.707Z,26.03
2023-05-20T04:54:37.689Z,25.99
2023-05-20T04:55:37.659Z,25.84
2023-05-20T04:56:37.698Z,25.59
2023-05-20T04:57:37.632Z,25.63
2023-05-20T04:58:37.627Z,25.54
2023-05-20T04:59:37.611Z,25.52
2023-05-20T05:00:37.594Z,25.40
2023-05-20T05:01:37.668Z,25.09
2023-05-20T05:02:37.628Z,25.02
2023-05-20T05:03:37.573Z,24.96
2023-05-20T05:04:37.600Z,24.90
2023-05-20T05:05:37.521Z,25.02
2023-05-20T05:06:37.532Z,25.15
2023-05-20T05:07:37.524Z,25.76
2023-05-20T05:08:37.488Z,26.03
2023-05-20T05:09:37.489Z,26.13
2023-05-20T05:10:37.458Z,26.48
2023-05-20T05:11:37.437Z,26.64
2023-05-20T05:12:37.438Z,26.98
2023-05-20T05:13:37.409Z,27.07
2023-05-20T05:14:37.416Z,27.42
2023-05-20T05:15:37.418Z,27.77
2023-05-20T05:16:37.380Z,27.53
2023-05-20T05:17:37.398Z,27.75
2023-05-20T05:18:37.361Z,27.83
2023-05-20T05:19:37.342Z,28.07
2023-05-20T05:20:37.329Z,28.55
2023-05-20T05:21:37.321Z,28.75
2023-05-20T05:22:37.305Z,29.03
2023-05-20T05:23:37.286Z,28.99
2023-05-20T05:24:37.290Z,28.57
2023-05-20T05:25:37.293Z,27.42
2023-05-20T05:26:37.247Z,25.89
2023-05-20T05:27:37.216Z,24.62
2023-05-20T05:28:37.211Z,23.72
2023-05-20T05:29:37.207Z,22.49
2023-05-20T05:30:37.177Z,21.67
2023-05-20T05:31:37.207Z,20.97
2023-05-20T05:32:37.220Z,20.39
2023-05-20T05:33:37.249Z,19.92
2023-05-20T05:34:37.141Z,19.53
2023-05-20T05:35:37.114Z,19.07
2023-05-20T05:36:37.095Z,18.75
2023-05-20T05:37:37.080Z,18.50
2023-05-20T05:38:37.088Z,18.36
2023-05-20T05:39:37.063Z,18.15
2023-05-20T05:40:37.048Z,18.04
2023-05-20T05:41:37.033Z,18.01
2023-05-20T05:42:37.016Z,17.93
2023-05-20T05:43:36.991Z,17.81
2023-05-20T05:44:37.001Z,17.61
2023-05-20T05:45:36.997Z,17.48
2023-05-20T05:46:36.984Z,17.40
2023-05-20T05:47:36.978Z,17.48
2023-05-20T05:48:36.954Z,17.51
2023-05-20T05:49:36.974Z,17.52
2023-05-20T05:50:36.912Z,17.60
2023-05-20T05:51:38.815Z,17.73
2023-05-20T05:52:36.916Z,17.90
2023-05-20T05:53:36.848Z,18.23
2023-05-20T05:54:36.849Z,18.29
2023-05-20T05:55:36.850Z,18.42
2023-05-20T05:56:36.812Z,18.39
2023-05-20T05:57:36.801Z,18.54
2023-05-20T05:58:36.788Z,18.70
2023-05-20T05:59:36.778Z,18.81
2023-05-20T06:00:36.794Z,19.05
2023-05-20T06:01:36.747Z,19.15
2023-05-20T06:02:36.987Z,19.33
2023-05-20T06:03:36.879Z,19.35
2023-05-20T06:04:36.748Z,19.44
2023-05-20T06:05:36.840Z,19.35
2023-05-20T06:06:36.668Z,19.35
2023-05-20T06:07:36.661Z,19.35
2023-05-20T06:08:36.640Z,19.37
2023-05-20T06:09:36.635Z,19.33
2023-05-20T06:10:36.640Z,19.40
2023-05-20T06:11:36.632Z,19.70
2023-05-20T06:12:36.584Z,19.85
2023-05-20T06:13:36.572Z,19.96
2023-05-20T06:14:36.584Z,20.04
2023-05-20T06:15:36.838Z,20.08
2023-05-20T06:16:36.601Z,20.10
2023-05-20T06:17:36.566Z,20.45
2023-05-20T06:18:36.500Z,20.78
2023-05-20T06:19:36.655Z,20.72
2023-05-20T06:20:36.486Z,20.64
2023-05-20T06:21:36.495Z,20.59
2023-05-20T06:22:36.448Z,20.72
2023-05-20T06:23:36.481Z,20.59
2023-05-20T06:24:36.427Z,20.56
2023-05-20T06:25:36.433Z,20.59
2023-05-20T06:26:36.397Z,20.76
2023-05-20T06:27:36.375Z,21.25
2023-05-20T06:28:36.360Z,21.53
2023-05-20T06:29:36.336Z,21.40
2023-05-20T06:30:36.348Z,21.45
2023-05-20T06:31:36.343Z,21.69
2023-05-20T06:32:36.334Z,21.76
2023-05-20T06:33:36.294Z,22.06
2023-05-20T06:34:36.306Z,22.49
2023-05-20T06:35:36.452Z,22.94
2023-05-20T06:36:36.280Z,23.30
2023-05-20T06:37:36.258Z,23.80
2023-05-20T06:38:36.219Z,24.08
2023-05-20T06:39:36.265Z,24.37
2023-05-20T06:40:36.199Z,24.43
2023-05-20T06:41:36.205Z,24.73
2023-05-20T06:42:36.198Z,25.25
2023-05-20T06:43:36.153Z,25.17
2023-05-20T06:44:36.150Z,25.46
2023-05-20T06:45:36.193Z,25.48
2023-05-20T06:46:36.169Z,25.41
2023-05-20T06:47:36.146Z,25.25
2023-05-20T06:48:36.094Z,24.75
2023-05-20T06:49:36.089Z,24.27
2023-05-20T06:50:36.078Z,24.19
2023-05-20T06:51:36.043Z,24.62
2023-05-20T06:52:36.043Z,25.27
2023-05-20T06:53:36.028Z,25.76
2023-05-20T06:54:36.000Z,26.38
2023-05-20T06:55:36.150Z,26.50
2023-05-20T06:56:35.977Z,26.08
2023-05-20T06:57:35.960Z,26.18
2023-05-20T06:58:35.955Z,26.52
2023-05-20T06:59:35.928Z,27.03
2023-05-20T07:00:35.934Z,27.61
2023-05-20T07:01:35.989Z,28.50
2023-05-20T07:02:35.922Z,29.07
2023-05-20T07:03:35.888Z,28.75
2023-05-20T07:04:35.873Z,28.87
2023-05-20T07:05:36.094Z,28.34
2023-05-20T07:06:35.842Z,27.61
2023-05-20T07:07:35.815Z,27.21
2023-05-20T07:08:35.814Z,26.57
2023-05-20T07:09:35.786Z,26.13
2023-05-20T07:10:35.908Z,26.60
2023-05-20T07:11:35.788Z,27.00
2023-05-20T07:12:36.916Z,27.70
2023-05-20T07:13:35.735Z,28.32
2023-05-20T07:14:35.784Z,29.28
2023-05-20T07:15:35.914Z,29.40
2023-05-20T07:16:35.729Z,28.75
2023-05-20T07:17:35.730Z,28.83
2023-05-20T07:18:35.670Z,28.59
2023-05-20T07:19:35.651Z,28.05
2023-05-20T07:20:35.645Z,27.44
2023-05-20T07:21:35.630Z,26.96
2023-05-20T07:22:35.612Z,26.62
2023-05-20T07:23:35.600Z,26.05
2023-05-20T07:24:35.589Z,26.17
2023-05-20T07:25:35.717Z,26.42
2023-05-20T07:26:35.569Z,26.88
2023-05-20T07:27:35.540Z,27.87
2023-05-20T07:28:35.532Z,28.73
2023-05-20T07:29:35.525Z,29.09
2023-05-20T07:30:35.511Z,29.70
2023-05-20T07:31:35.557Z,29.67
2023-05-20T07:32:35.529Z,29.59
2023-05-20T07:33:35.463Z,30.06
2023-05-20T07:34:35.470Z,30.48
2023-05-20T07:35:35.665Z,30.70
2023-05-20T07:36:35.432Z,30.66
2023-05-20T07:37:35.419Z,30.55
2023-05-20T07:38:35.396Z,30.13
2023-05-20T07:39:35.378Z,30.08
2023-05-20T07:40:35.568Z,30.39
2023-05-20T07:41:35.368Z,30.66
2023-05-20T07:42:35.348Z,30.26
2023-05-20T07:43:35.315Z,29.76
2023-05-20T07:44:35.324Z,28.91
2023-05-20T07:45:35.582Z,27.75
2023-05-20T07:46:35.368Z,27.33
2023-05-20T07:47:35.278Z,26.64
2023-05-20T07:48:35.268Z,25.79
2023-05-20T07:49:35.248Z,25.51
2023-05-20T07:50:35.249Z,25.94
2023-05-20T07:51:35.220Z,26.30
2023-05-20T07:52:44.092Z,27.00
2023-05-20T07:53:35.195Z,27.81
2023-05-20T07:54:35.193Z,28.95
2023-05-20T07:55:35.368Z,30.28
2023-05-20T07:56:35.143Z,31.38
2023-05-20T07:57:35.142Z,31.86
2023-05-20T07:58:35.120Z,32.03
2023-05-20T07:59:35.098Z,31.47
2023-05-20T08:00:35.094Z,31.76
2023-05-20T08:01:35.074Z,32.48
2023-05-20T08:02:35.165Z,33.31
2023-05-20T08:03:35.136Z,33.20
2023-05-20T08:04:35.296Z,32.71
2023-05-20T08:05:35.249Z,31.52
2023-05-20T08:06:35.009Z,30.34
2023-05-20T08:07:34.999Z,30.17
2023-05-20T08:08:34.991Z,29.59
2023-05-20T08:09:34.953Z,29.01
2023-05-20T08:10:34.963Z,28.28
2023-05-20T08:11:34.946Z,28.53
2023-05-20T08:12:34.950Z,28.50
2023-05-20T08:13:34.903Z,28.73
2023-05-20T08:14:34.913Z,28.34
2023-05-20T08:15:35.025Z,28.23
2023-05-20T08:16:34.892Z,28.13
2023-05-20T08:17:34.877Z,28.05
2023-05-20T08:18:34.833Z,28.65
2023-05-20T08:19:34.951Z,29.34
2023-05-20T08:20:34.825Z,29.87
2023-05-20T08:21:34.809Z,29.91
2023-05-20T08:22:34.795Z,31.02
2023-05-20T08:23:37.233Z,31.90
2023-05-20T08:24:34.747Z,31.49
2023-05-20T08:25:34.878Z,32.40
2023-05-20T08:26:34.723Z,33.36
2023-05-20T08:27:34.714Z,32.53
2023-05-20T08:28:34.704Z,32.38
2023-05-20T08:29:34.700Z,31.40
2023-05-20T08:30:34.684Z,30.43
2023-05-20T08:31:34.787Z,31.90
2023-05-20T08:32:34.760Z,33.04
2023-05-20T08:33:34.641Z,32.53
2023-05-20T08:34:34.628Z,33.18
2023-05-20T08:35:34.792Z,34.38
2023-05-20T08:36:34.580Z,33.85
2023-05-20T08:37:34.577Z,32.53
2023-05-20T08:38:34.546Z,30.89
2023-05-20T08:39:34.556Z,29.82
2023-05-20T08:40:34.525Z,28.75
2023-05-20T08:41:34.539Z,27.61
2023-05-20T08:42:34.515Z,28.00
2023-05-20T08:43:34.492Z,28.75
2023-05-20T08:44:34.463Z,28.75
2023-05-20T08:45:34.671Z,31.05
2023-05-20T08:46:34.511Z,33.77
2023-05-20T08:47:34.537Z,35.99
2023-05-20T08:48:34.416Z,37.86
2023-05-20T08:49:34.398Z,39.70
2023-05-20T08:50:34.386Z,38.13
2023-05-20T08:51:34.380Z,35.05
2023-05-20T08:52:34.351Z,33.10
2023-05-20T08:53:34.362Z,30.75
2023-05-20T08:54:34.350Z,30.98
2023-05-20T08:55:34.460Z,32.94
2023-05-20T08:56:34.302Z,34.04
2023-05-20T08:57:34.293Z,33.69
2023-05-20T08:58:34.288Z,34.07
2023-05-20T08:59:34.278Z,34.21
2023-05-20T09:00:34.255Z,33.50
2023-05-20T09:01:34.320Z,34.41
2023-05-20T09:02:34.260Z,34.02
2023-05-20T09:03:34.210Z,32.89
2023-05-20T09:04:34.253Z,31.19
2023-05-20T09:05:34.448Z,31.35
2023-05-20T09:06:34.163Z,33.55
2023-05-20T09:07:34.186Z,34.35
2023-05-20T09:08:34.185Z,33.20
2023-05-20T09:09:34.125Z,32.99
2023-05-20T09:10:34.117Z,34.24
2023-05-20T09:11:34.102Z,33.42
2023-05-20T09:12:34.082Z,31.40
2023-05-20T09:13:34.178Z,31.26
2023-05-20T09:14:34.070Z,32.55
2023-05-20T09:15:34.185Z,33.58
2023-05-20T09:16:34.087Z,34.90
2023-05-20T09:17:34.055Z,36.05
2023-05-20T09:18:34.001Z,38.77
2023-05-20T09:19:34.145Z,38.88
2023-05-20T09:20:33.991Z,36.72
2023-05-20T09:21:33.967Z,36.40
2023-05-20T09:22:33.936Z,34.96
2023-05-20T09:23:33.968Z,35.74
2023-05-20T09:24:33.960Z,35.05
2023-05-20T09:25:34.215Z,34.41
2023-05-20T09:26:33.873Z,33.04
2023-05-20T09:27:33.892Z,32.18
2023-05-20T09:28:33.863Z,32.08
2023-05-20T09:29:33.870Z,31.35
2023-05-20T09:30:33.838Z,30.04
2023-05-20T09:31:34.026Z,30.08
2023-05-20T09:32:33.860Z,31.64
2023-05-20T09:33:33.809Z,35.29
2023-05-20T09:34:33.759Z,39.70
2023-05-20T09:35:33.933Z,43.11
2023-05-20T09:36:33.749Z,43.07
2023-05-20T09:37:33.723Z,40.16
2023-05-20T09:38:33.697Z,39.29
2023-05-20T09:39:33.699Z,42.63
2023-05-20T09:40:33.754Z,45.97
2023-05-20T09:41:33.659Z,44.40
2023-05-20T09:42:33.671Z,43.34
2023-05-20T09:43:33.689Z,42.76
2023-05-20T09:44:33.629Z,40.51
2023-05-20T09:45:33.807Z,40.47
2023-05-20T09:46:33.695Z,41.69
2023-05-20T09:47:33.673Z,41.94
2023-05-20T09:48:34.022Z,40.31
2023-05-20T09:49:33.563Z,38.03
2023-05-20T09:50:33.543Z,36.72
2023-05-20T09:51:33.534Z,34.19
2023-05-20T09:52:33.516Z,32.40
2023-05-20T09:53:33.502Z,31.30
2023-05-20T09:54:33.496Z,30.89
2023-05-20T09:55:33.920Z,30.04
2023-05-20T09:56:33.466Z,28.75
2023-05-20T09:57:33.451Z,30.24
2023-05-20T09:58:33.447Z,30.43
2023-05-20T09:59:33.436Z,34.81
2023-05-20T10:00:33.408Z,39.58
2023-05-20T10:01:33.463Z,43.29
2023-05-20T10:02:33.459Z,47.30
2023-05-20T10:03:33.732Z,48.43
2023-05-20T10:04:33.388Z,50.52
2023-05-20T10:05:33.784Z,53.41
2023-05-20T10:06:33.334Z,57.59
2023-05-20T10:07:41.760Z,62.29
2023-05-20T10:08:33.306Z,68.11
2023-05-20T10:09:33.321Z,72.45
2023-05-20T10:10:33.291Z,76.03
2023-05-20T10:11:33.272Z,76.80
2023-05-20T10:12:33.244Z,78.39
2023-05-20T10:13:33.244Z,77.23
2023-05-20T10:14:33.253Z,80.21
2023-05-20T10:15:33.379Z,77.81
2023-05-20T10:16:33.237Z,80.91
2023-05-20T10:17:33.319Z,82.93
2023-05-20T10:18:33.206Z,81.15
2023-05-20T10:19:33.342Z,75.75
2023-05-20T10:20:33.179Z,73.02
2023-05-20T10:21:33.154Z,70.30
2023-05-20T10:22:33.147Z,68.39
2023-05-20T10:23:33.125Z,66.00
2023-05-20T10:24:33.121Z,67.34
2023-05-20T10:25:33.268Z,67.56
2023-05-20T10:26:33.210Z,67.40
2023-05-20T10:27:33.112Z,66.37
2023-05-20T10:28:33.074Z,62.48
2023-05-20T10:29:33.059Z,57.83
2023-05-20T10:30:33.240Z,56.49
2023-05-20T10:31:33.040Z,58.85
2023-05-20T10:32:33.466Z,57.67
2023-05-20T10:33:33.084Z,55.33
2023-05-20T10:34:32.974Z,54.28
2023-05-20T10:35:33.049Z,53.76
2023-05-20T10:36:32.942Z,49.62
2023-05-20T10:37:32.977Z,44.54
2023-05-20T10:38:32.953Z,41.48
2023-05-20T10:39:32.917Z,41.27
2023-05-20T10:40:33.329Z,42.76
2023-05-20T10:41:32.877Z,44.35
2023-05-20T10:42:32.867Z,44.98
2023-05-20T10:43:32.858Z,48.80
2023-05-20T10:44:32.865Z,53.38
2023-05-20T10:45:32.940Z,54.75
2023-05-20T10:46:44.204Z,55.26
2023-05-20T10:47:32.955Z,53.24
2023-05-20T10:48:33.038Z,56.19
2023-05-20T10:49:32.783Z,57.47
2023-05-20T10:50:32.973Z,55.18
2023-05-20T10:51:32.750Z,56.11
2023-05-20T10:52:32.743Z,57.47
2023-05-20T10:53:34.483Z,55.40
2023-05-20T10:54:32.712Z,61.15
2023-05-20T10:55:32.718Z,63.83
2023-05-20T10:56:32.699Z,67.51
2023-05-20T10:57:32.677Z,69.31
2023-05-20T10:58:32.699Z,71.15
2023-05-20T10:59:32.645Z,73.41
2023-05-20T11:00:32.984Z,78.99
2023-05-20T11:01:32.699Z,79.75
2023-05-20T11:02:32.638Z,88.21
2023-05-20T11:03:32.713Z,86.29
2023-05-20T11:04:32.589Z,93.15
2023-05-20T11:05:32.624Z,100.03
2023-05-20T11:06:32.551Z,99.19
2023-05-20T11:07:32.548Z,102.12
2023-05-20T11:08:32.610Z,99.79
2023-05-20T11:09:32.532Z,92.94
2023-05-20T11:10:32.793Z,91.61
2023-05-20T11:11:32.575Z,99.14
2023-05-20T11:12:32.497Z,110.76
2023-05-20T11:13:32.438Z,117.32
2023-05-20T11:14:32.474Z,115.61
2023-05-20T11:15:32.407Z,116.67
2023-05-20T11:16:32.416Z,129.98
2023-05-20T11:17:32.486Z,132.68
2023-05-20T11:18:32.391Z,119.26
2023-05-20T11:19:32.513Z,126.91
2023-05-20T11:20:32.426Z,122.88
2023-05-20T11:21:32.418Z,106.64
2023-05-20T11:22:32.394Z,94.53
2023-05-20T11:23:32.414Z,91.01
2023-05-20T11:24:32.323Z,89.93
2023-05-20T11:25:32.325Z,81.95
2023-05-20T11:26:32.350Z,74.19
2023-05-20T11:27:32.264Z,91.41
2023-05-20T11:28:32.288Z,103.07
2023-05-20T11:29:32.297Z,112.71
2023-05-20T11:30:32.266Z,123.06
2023-05-20T11:31:32.279Z,115.61
2023-05-20T11:32:32.382Z,109.45
2023-05-20T11:33:32.229Z,110.61
2023-05-20T11:34:32.208Z,106.98
2023-05-20T11:35:32.193Z,116.34
2023-05-20T11:36:32.195Z,122.06
2023-05-20T11:37:32.226Z,120.12
2023-05-20T11:38:32.103Z,116.75
2023-05-20T11:39:32.153Z,122.69
2023-05-20T11:40:38.899Z,117.82
2023-05-20T11:41:32.088Z,123.33
2023-05-20T11:42:32.106Z,128.08
2023-05-20T11:43:32.091Z,132.89
2023-05-20T11:44:32.036Z,125.09
2023-05-20T11:45:32.096Z,130.49
2023-05-20T11:46:32.216Z,135.49
2023-05-20T11:47:32.059Z,140.29
2023-05-20T11:48:32.085Z,145.20
2023-05-20T11:49:31.975Z,141.37
2023-05-20T11:50:32.096Z,130.80
2023-05-20T11:51:40.126Z,122.60
2023-05-20T11:52:32.093Z,117.00
2023-05-20T11:53:32.082Z,113.95
2023-05-20T11:54:31.951Z,118.50
2023-05-20T11:55:31.909Z,109.59
2023-05-20T11:56:31.916Z,102.75
2023-05-20T11:57:31.912Z,105.56
2023-05-20T11:58:31.893Z,101.43
2023-05-20T11:59:31.869Z,102.37
2023-05-20T12:00:43.016Z,114.26
2023-05-20T12:01:31.878Z,116.10
2023-05-20T12:02:31.948Z,114.89
2023-05-20T12:03:32.026Z,123.70
2023-05-20T12:04:31.846Z,124.35
2023-05-20T12:05:31.858Z,125.00
2023-05-20T12:06:31.749Z,105.35
2023-05-20T12:07:31.790Z,93.99
2023-05-20T12:08:31.764Z,93.47
2023-05-20T12:09:31.816Z,88.21
2023-05-20T12:10:31.713Z,101.43
2023-05-20T12:11:31.735Z,118.16
2023-05-20T12:12:31.682Z,111.80
2023-05-20T12:13:33.150Z,108.73
2023-05-20T12:14:31.657Z,101.25
2023-05-20T12:15:31.681Z,103.39
2023-05-20T12:16:31.721Z,96.43
2023-05-20T12:17:31.678Z,100.21
2023-05-20T12:18:31.594Z,104.69
2023-05-20T12:19:32.691Z,103.52
2023-05-20T12:20:31.619Z,104.82
2023-05-20T12:21:31.601Z,107.61
2023-05-20T12:22:31.562Z,120.64
2023-05-20T12:23:31.535Z,121.08
2023-05-20T12:24:31.580Z,117.16
2023-05-20T12:25:31.521Z,124.81
2023-05-20T12:26:31.475Z,117.41
2023-05-20T12:27:31.582Z,117.49
2023-05-20T12:28:31.446Z,117.49
2023-05-20T12:29:31.472Z,112.94
2023-05-20T12:30:31.492Z,107.54
2023-05-20T12:31:33.957Z,107.47
2023-05-20T12:32:31.513Z,117.74
2023-05-20T12:33:31.417Z,133.32
2023-05-20T12:34:31.388Z,143.44
2023-05-20T12:35:42.558Z,147.51
2023-05-20T12:36:41.885Z,152.66
2023-05-20T12:37:31.518Z,138.31
2023-05-20T12:38:31.499Z,128.88
2023-05-20T12:39:31.418Z,124.91
2023-05-20T12:40:31.358Z,142.58
2023-05-20T12:41:31.352Z,156.10
2023-05-20T12:42:40.648Z,141.73
2023-05-20T12:43:31.524Z,106.57
2023-05-20T12:44:31.478Z,114.65
2023-05-20T12:45:31.278Z,117.91
2023-05-20T12:46:31.404Z,116.10
2023-05-20T12:47:31.341Z,118.92
2023-05-20T12:48:31.267Z,115.61
2023-05-20T12:49:31.239Z,107.95